Time;durP1;ratioP1;P1;durP2;ratioP2;P2;SDS_P1;SDS_P2;PMS_P1;PMS_P2;Temp;Humidity;BMP_temperature;BMP_pressure;BME280_temperature;BME280_humidity;BME280_pressure;Samples;Min_cycle;Max_cycle;Signal;HPM_P1;HPM_P2
2021/07/06 00:00:22;;;;;;;3.95;1.52;;;23.50;68.30;;;;;;5112208;28;20106;-73
2021/07/06 00:02:50;;;;;;;4.57;1.33;;;23.50;68.70;;;;;;5113459;28;20023;-73
2021/07/06 00:05:15;;;;;;;2.47;1.73;;;23.50;68.40;;;;;;5113347;28;20024;-74
2021/07/06 00:07:41;;;;;;;3.20;1.50;;;23.50;68.30;;;;;;5113435;28;20364;-73
2021/07/06 00:10:09;;;;;;;2.85;1.60;;;23.50;68.50;;;;;;5113654;28;20031;-74
2021/07/06 00:12:35;;;;;;;5.70;1.60;;;23.50;68.20;;;;;;5113249;28;20472;-73
2021/07/06 00:15:01;;;;;;;3.50;2.35;;;23.50;68.20;;;;;;5113142;28;20075;-74
2021/07/06 00:17:26;;;;;;;2.63;1.60;;;23.40;68.20;;;;;;5113629;28;20020;-73
2021/07/06 00:19:52;;;;;;;4.93;1.90;;;23.40;68.20;;;;;;5113409;28;20059;-73
2021/07/06 00:22:18;;;;;;;3.10;1.60;;;23.40;68.50;;;;;;5113445;28;20072;-73
2021/07/06 00:24:46;;;;;;;2.15;1.60;;;23.40;68.90;;;;;;5113332;28;20042;-73
2021/07/06 00:27:12;;;;;;;4.53;2.10;;;23.30;68.70;;;;;;5113233;28;20016;-74
2021/07/06 00:29:38;;;;;;;3.03;1.63;;;23.30;68.70;;;;;;5113362;28;20360;-73
2021/07/06 00:32:04;;;;;;;4.45;2.00;;;23.30;68.70;;;;;;5113285;28;20031;-74
2021/07/06 00:34:30;;;;;;;5.78;1.90;;;23.30;69.30;;;;;;5114533;28;20514;-74
2021/07/06 00:36:56;;;;;;;8.60;2.10;;;23.30;69.90;;;;;;5117369;28;20058;-73
2021/07/06 00:39:21;;;;;;;5.03;2.08;;;23.20;69.90;;;;;;5117170;28;20032;-73
2021/07/06 00:41:47;;;;;;;6.25;2.10;;;23.10;70.40;;;;;;5117174;28;20103;-73
2021/07/06 00:44:15;;;;;;;6.03;2.10;;;23.10;70.50;;;;;;5117162;28;20478;-73
2021/07/06 00:46:41;;;;;;;7.05;2.10;;;23.00;70.60;;;;;;5117353;28;20054;-73
2021/07/06 00:49:07;;;;;;;6.18;2.20;;;23.00;70.70;;;;;;5117043;28;20028;-73
2021/07/06 00:51:32;;;;;;;5.97;2.33;;;23.00;70.90;;;;;;5116545;28;20023;-73
2021/07/06 00:53:59;;;;;;;7.32;2.20;;;22.90;71.00;;;;;;5116771;28;20024;-73
2021/07/06 00:56:25;;;;;;;3.40;2.22;;;22.90;71.40;;;;;;5117047;28;20085;-73
2021/07/06 00:58:51;;;;;;;7.70;2.00;;;22.80;71.70;;;;;;5114635;28;20027;-73
2021/07/06 01:01:16;;;;;;;5.53;2.17;;;22.80;71.50;;;;;;5114090;28;20437;-74
2021/07/06 01:03:43;;;;;;;3.08;1.90;;;22.80;71.20;;;;;;5113982;28;20057;-74
2021/07/06 01:06:10;;;;;;;3.22;2.10;;;22.80;71.30;;;;;;5116429;28;20412;-74
2021/07/06 01:08:35;;;;;;;3.03;1.80;;;22.80;71.20;;;;;;5116804;28;20472;-73
2021/07/06 01:11:02;;;;;;;5.65;2.10;;;22.80;71.30;;;;;;5116595;28;20068;-73
2021/07/06 01:13:29;;;;;;;4.65;2.15;;;22.80;71.40;;;;;;5115793;28;20103;-73
2021/07/06 01:15:55;;;;;;;6.05;2.17;;;22.80;71.50;;;;;;5116370;28;20062;-73
2021/07/06 01:18:21;;;;;;;6.22;2.00;;;22.80;71.90;;;;;;5116391;28;20038;-73
2021/07/06 01:20:52;;;;;;;4.57;2.63;;;22.70;71.70;;;;;;5115801;28;20023;-74
2021/07/06 01:23:21;;;;;;;6.10;2.25;;;22.70;71.70;;;;;;5116003;28;20468;-73
2021/07/06 01:25:49;;;;;;;4.28;2.15;;;22.70;71.50;;;;;;5116320;28;20453;-74
2021/07/06 01:28:15;;;;;;;7.00;2.20;;;22.70;72.00;;;;;;5115909;28;20122;-74
2021/07/06 01:30:41;;;;;;;10.38;2.20;;;22.60;72.10;;;;;;5116348;28;20099;-74
2021/07/06 01:33:07;;;;;;;4.93;2.03;;;22.50;72.10;;;;;;5116064;28;20432;-73
2021/07/06 01:35:34;;;;;;;8.25;2.70;;;22.50;72.30;;;;;;5115797;28;20502;-74
2021/07/06 01:38:03;;;;;;;9.23;3.30;;;22.50;72.60;;;;;;5115972;28;20031;-73
2021/07/06 01:40:30;;;;;;;6.90;2.00;;;22.50;73.00;;;;;;5115938;28;20027;-73
2021/07/06 01:42:57;;;;;;;4.97;1.98;;;22.50;72.80;;;;;;5115777;28;20102;-73
2021/07/06 01:45:26;;;;;;;5.63;2.40;;;22.50;72.50;;;;;;5115927;28;20024;-73
2021/07/06 01:47:54;;;;;;;5.97;2.50;;;22.40;73.00;;;;;;5115899;28;20518;-73
2021/07/06 01:50:27;;;;;;;5.50;1.92;;;22.40;72.90;;;;;;5115659;28;20035;-74
2021/07/06 01:52:57;;;;;;;4.68;1.92;;;22.40;73.40;;;;;;5115629;28;20472;-74
2021/07/06 01:55:27;;;;;;;4.65;2.40;;;22.40;72.40;;;;;;5115516;28;20032;-73
2021/07/06 01:57:54;;;;;;;4.13;1.75;;;22.40;72.10;;;;;;5115269;28;20016;-73
2021/07/06 02:00:23;;;;;;;2.22;1.67;;;22.40;72.00;;;;;;5115569;28;20034;-73
2021/07/06 02:02:52;;;;;;;6.63;1.67;;;22.40;71.80;;;;;;5115469;28;20103;-74
2021/07/06 02:05:17;;;;;;;5.35;2.03;;;22.30;72.30;;;;;;5115164;28;20020;-74
2021/07/06 02:07:44;;;;;;;4.68;1.70;;;22.40;71.70;;;;;;5115315;28;20103;-73
2021/07/06 02:10:11;;;;;;;5.63;2.38;;;22.30;71.60;;;;;;5115410;28;20031;-73
2021/07/06 02:12:38;;;;;;;6.55;1.83;;;22.30;72.00;;;;;;5115163;28;20051;-73
2021/07/06 02:15:06;;;;;;;9.80;2.25;;;22.30;72.70;;;;;;5114960;28;20116;-74
2021/07/06 02:17:32;;;;;;;7.00;2.40;;;22.20;72.80;;;;;;5115577;28;20035;-74
2021/07/06 02:19:57;;;;;;;6.18;2.05;;;22.20;72.80;;;;;;5115337;28;20387;-73
2021/07/06 02:22:23;;;;;;;3.13;2.30;;;22.20;72.90;;;;;;5115396;28;20058;-73
2021/07/06 02:24:49;;;;;;;7.93;2.65;;;22.20;72.80;;;;;;5115252;28;20024;-73
2021/07/06 02:27:15;;;;;;;6.97;1.85;;;22.20;72.80;;;;;;5115137;28;20019;-73
2021/07/06 02:29:41;;;;;;;9.73;2.22;;;22.20;73.30;;;;;;5115390;28;20031;-73
2021/07/06 02:32:07;;;;;;;8.13;2.00;;;22.20;72.60;;;;;;5115038;28;20031;-74
2021/07/06 02:34:33;;;;;;;14.57;2.10;;;22.20;72.50;;;;;;5114863;28;20024;-74
2021/07/06 02:36:58;;;;;;;6.47;2.28;;;22.20;72.30;;;;;;5114848;28;20024;-73
2021/07/06 02:39:24;;;;;;;5.68;2.10;;;22.20;72.50;;;;;;5115081;28;20090;-73
2021/07/06 02:41:50;;;;;;;6.80;2.15;;;22.20;72.70;;;;;;5114995;28;20032;-74
2021/07/06 02:44:16;;;;;;;3.97;2.05;;;22.20;72.70;;;;;;5114874;28;20088;-73
2021/07/06 02:46:42;;;;;;;6.22;2.40;;;22.20;73.10;;;;;;5114836;28;20023;-73
2021/07/06 02:49:07;;;;;;;4.30;2.20;;;22.10;72.70;;;;;;5114653;28;20368;-73
2021/07/06 02:51:34;;;;;;;5.15;2.08;;;22.10;72.90;;;;;;5114675;28;20015;-73
2021/07/06 02:54:01;;;;;;;4.47;1.90;;;22.10;72.70;;;;;;5114649;28;20020;-73
2021/07/06 02:56:27;;;;;;;6.32;2.10;;;22.10;72.30;;;;;;5114424;28;20042;-73
2021/07/06 02:58:52;;;;;;;7.38;2.30;;;22.10;72.80;;;;;;5114283;28;20523;-73
2021/07/06 03:01:18;;;;;;;6.53;2.15;;;22.10;72.20;;;;;;5114509;28;20410;-73
2021/07/06 03:03:44;;;;;;;8.85;2.50;;;22.00;71.90;;;;;;5114322;28;20031;-73
2021/07/06 03:06:09;;;;;;;6.53;2.00;;;22.00;72.20;;;;;;5114924;28;20030;-74
2021/07/06 03:08:35;;;;;;;12.30;2.08;;;22.00;72.40;;;;;;5114732;28;20031;-73
2021/07/06 03:11:01;;;;;;;3.70;2.00;;;22.00;72.60;;;;;;5114126;28;20073;-74
2021/07/06 03:13:27;;;;;;;5.25;2.10;;;22.00;72.20;;;;;;5114056;28;20023;-73
2021/07/06 03:15:53;;;;;;;9.02;2.60;;;21.90;72.00;;;;;;5114191;28;20043;-73
2021/07/06 03:18:19;;;;;;;5.35;2.38;;;21.90;72.10;;;;;;5114148;28;20506;-73
2021/07/06 03:20:45;;;;;;;7.63;3.22;;;21.90;72.10;;;;;;5114194;28;20026;-74
2021/07/06 03:23:10;;;;;;;11.50;2.15;;;21.90;72.30;;;;;;5113872;28;20043;-73
2021/07/06 03:25:36;;;;;;;6.47;2.15;;;21.90;72.50;;;;;;5114057;28;20012;-73
2021/07/06 03:28:04;;;;;;;5.13;2.60;;;21.90;72.50;;;;;;5113922;28;20035;-73
2021/07/06 03:30:33;;;;;;;15.25;2.33;;;21.90;72.40;;;;;;5113666;28;20476;-73
2021/07/06 03:33:00;;;;;;;10.70;2.97;;;21.90;72.40;;;;;;5113779;28;20384;-73
2021/07/06 03:35:27;;;;;;;5.70;2.28;;;21.80;72.60;;;;;;5113798;28;20024;-73
2021/07/06 03:37:54;;;;;;;6.28;2.53;;;21.80;72.80;;;;;;5113794;28;20027;-73
2021/07/06 03:40:20;;;;;;;6.93;2.40;;;21.80;73.40;;;;;;5113800;28;20020;-73
2021/07/06 03:42:46;;;;;;;3.90;2.08;;;21.70;73.20;;;;;;5113657;28;20019;-73
2021/07/06 03:45:14;;;;;;;4.50;2.20;;;21.70;73.20;;;;;;5113748;28;20016;-73
2021/07/06 03:47:40;;;;;;;7.20;2.78;;;21.70;73.50;;;;;;5112410;28;20116;-72
2021/07/06 03:50:09;;;;;;;14.73;2.53;;;21.70;73.20;;;;;;5113666;28;20101;-73
2021/07/06 03:52:35;;;;;;;5.10;2.10;;;21.70;73.10;;;;;;5113682;28;20034;-73
2021/07/06 03:55:01;;;;;;;18.95;2.58;;;21.70;73.70;;;;;;5113428;28;20043;-73
2021/07/06 03:57:29;;;;;;;9.75;2.40;;;21.70;73.60;;;;;;5112135;28;20413;-73
2021/07/06 04:00:00;;;;;;;6.05;2.30;;;21.70;72.90;;;;;;5113446;28;20024;-74
2021/07/06 04:02:26;;;;;;;9.02;4.00;;;21.70;72.80;;;;;;5113606;28;20020;-73
2021/07/06 04:04:52;;;;;;;6.30;2.47;;;21.70;72.50;;;;;;5113633;28;20365;-74
2021/07/06 04:07:18;;;;;;;13.10;2.78;;;21.70;72.60;;;;;;5113396;28;20107;-74
2021/07/06 04:09:45;;;;;;;4.75;2.10;;;21.70;72.70;;;;;;5115072;28;20028;-73
2021/07/06 04:12:11;;;;;;;9.15;2.25;;;21.60;72.60;;;;;;5117682;28;20016;-73
2021/07/06 04:14:37;;;;;;;11.50;2.53;;;21.70;72.70;;;;;;5117544;28;20079;-73
2021/07/06 04:17:03;;;;;;;6.20;2.35;;;21.70;73.10;;;;;;5117720;28;20459;-73
2021/07/06 04:19:29;;;;;;;8.98;3.08;;;21.60;73.50;;;;;;5117883;28;20027;-73
2021/07/06 04:21:55;;;;;;;5.70;2.00;;;21.60;73.70;;;;;;5117503;28;20027;-73
2021/07/06 04:24:20;;;;;;;5.93;2.10;;;21.60;73.70;;;;;;5117549;28;20641;-73
2021/07/06 04:26:46;;;;;;;2.88;1.98;;;21.60;73.50;;;;;;5117239;28;20080;-73
2021/07/06 04:29:12;;;;;;;2.75;1.95;;;21.70;73.20;;;;;;5117181;28;20036;-73
2021/07/06 04:31:38;;;;;;;4.43;1.80;;;21.70;72.50;;;;;;5117430;28;20090;-73
2021/07/06 04:34:04;;;;;;;2.72;2.00;;;21.70;72.20;;;;;;5117099;28;20471;-74
2021/07/06 04:36:30;;;;;;;9.73;2.10;;;21.80;72.10;;;;;;5117278;28;20019;-74
2021/07/06 04:38:56;;;;;;;3.55;1.90;;;21.80;71.80;;;;;;5117410;28;20154;-73
2021/07/06 04:41:21;;;;;;;3.67;2.08;;;21.80;71.50;;;;;;5117196;28;20061;-73
2021/07/06 04:43:47;;;;;;;4.40;2.20;;;21.90;71.60;;;;;;5117216;28;20034;-73
2021/07/06 04:46:13;;;;;;;6.85;2.53;;;21.90;71.40;;;;;;5117395;28;20023;-73
2021/07/06 04:48:39;;;;;;;5.10;2.10;;;21.90;71.50;;;;;;5117137;28;20047;-73
2021/07/06 04:51:09;;;;;;;2.65;1.77;;;22.00;71.40;;;;;;5117303;28;20024;-74
2021/07/06 04:53:36;;;;;;;2.75;1.50;;;22.00;71.40;;;;;;5116835;28;20026;-74
2021/07/06 04:56:02;;;;;;;2.03;1.42;;;22.10;71.20;;;;;;5116841;28;20026;-73
2021/07/06 04:58:29;;;;;;;3.63;1.85;;;22.10;71.10;;;;;;5115552;28;20515;-73
2021/07/06 05:00:55;;;;;;;4.20;1.67;;;22.10;71.20;;;;;;5116862;28;20019;-73
2021/07/06 05:03:21;;;;;;;7.35;1.77;;;22.10;70.90;;;;;;5116478;28;20035;-73
2021/07/06 05:05:47;;;;;;;7.20;1.90;;;22.20;70.90;;;;;;5116946;28;20019;-73
2021/07/06 05:08:13;;;;;;;6.20;2.33;;;22.20;70.40;;;;;;5116847;28;20544;-73
2021/07/06 05:10:39;;;;;;;3.97;1.50;;;22.20;70.30;;;;;;5116608;28;20521;-73
2021/07/06 05:13:05;;;;;;;4.20;1.88;;;22.30;70.40;;;;;;5117088;28;20020;-73
2021/07/06 05:15:31;;;;;;;3.35;1.60;;;22.30;70.30;;;;;;5116431;28;20071;-73
2021/07/06 05:17:56;;;;;;;3.25;1.60;;;22.30;70.10;;;;;;5116711;28;20075;-73
2021/07/06 05:20:22;;;;;;;6.20;1.85;;;22.30;69.90;;;;;;5116030;28;20429;-73
2021/07/06 05:22:48;;;;;;;6.13;1.65;;;22.30;69.80;;;;;;5116214;28;20070;-73
2021/07/06 05:25:14;;;;;;;5.80;2.00;;;22.40;70.00;;;;;;5116236;28;20016;-73
2021/07/06 05:27:40;;;;;;;6.30;2.00;;;22.40;70.00;;;;;;5116472;28;20027;-74
2021/07/06 05:30:08;;;;;;;5.28;2.15;;;22.40;69.90;;;;;;5116054;28;20020;-74
2021/07/06 05:32:37;;;;;;;5.28;2.00;;;22.50;69.90;;;;;;5115767;28;20020;-75
2021/07/06 05:35:03;;;;;;;4.13;1.98;;;22.60;69.70;;;;;;5116237;28;20052;-74
2021/07/06 05:37:29;;;;;;;2.67;1.95;;;22.60;69.50;;;;;;5115981;28;20024;-75
2021/07/06 05:39:54;;;;;;;5.32;2.10;;;22.70;69.40;;;;;;5115759;28;20109;-73
2021/07/06 05:42:20;;;;;;;5.50;2.20;;;22.70;69.50;;;;;;5116010;28;20046;-74
2021/07/06 05:44:46;;;;;;;6.88;2.25;;;22.70;69.40;;;;;;5115998;28;20031;-74
2021/07/06 05:47:12;;;;;;;4.80;2.10;;;22.80;69.30;;;;;;5115711;28;20015;-74
2021/07/06 05:49:38;;;;;;;4.75;1.98;;;22.80;69.20;;;;;;5115707;28;20028;-74
2021/07/06 05:52:04;;;;;;;3.63;2.20;;;22.90;69.20;;;;;;5115416;28;20464;-74
2021/07/06 05:54:30;;;;;;;4.65;2.20;;;22.90;69.20;;;;;;5115356;28;20034;-73
2021/07/06 05:56:55;;;;;;;4.28;1.80;;;22.90;69.20;;;;;;5115515;28;20024;-73
2021/07/06 05:59:22;;;;;;;4.80;2.13;;;23.00;68.90;;;;;;5115683;28;20495;-72
2021/07/06 06:01:48;;;;;;;3.63;1.80;;;23.00;68.20;;;;;;5113660;28;20034;-72
2021/07/06 06:04:15;;;;;;;3.75;1.95;;;23.00;67.90;;;;;;5115373;28;20023;-72
2021/07/06 06:06:40;;;;;;;8.07;1.88;;;23.10;67.90;;;;;;5115763;28;20100;-72
2021/07/06 06:09:06;;;;;;;4.28;1.90;;;23.10;68.10;;;;;;5115424;28;20566;-72
2021/07/06 06:11:32;;;;;;;2.03;1.70;;;23.10;68.70;;;;;;5115578;28;20388;-73
2021/07/06 06:13:57;;;;;;;3.42;1.83;;;23.10;67.90;;;;;;5115457;28;20042;-72
2021/07/06 06:16:23;;;;;;;5.35;1.75;;;23.20;67.90;;;;;;5115798;28;20028;-72
2021/07/06 06:18:54;;;;;;;3.75;1.45;;;23.20;67.90;;;;;;5115553;28;20023;-73
2021/07/06 06:21:24;;;;;;;10.63;1.70;;;23.20;67.70;;;;;;5115428;28;20387;-73
2021/07/06 06:23:50;;;;;;;3.38;1.80;;;23.30;67.60;;;;;;5115287;28;20379;-72
2021/07/06 06:26:16;;;;;;;3.42;1.60;;;23.30;67.70;;;;;;5115322;28;20023;-73
2021/07/06 06:28:41;;;;;;;3.67;1.75;;;23.30;67.60;;;;;;5115202;28;20395;-72
2021/07/06 06:31:08;;;;;;;6.18;1.70;;;23.40;67.70;;;;;;5115109;28;20027;-74
2021/07/06 06:33:33;;;;;;;3.47;1.85;;;23.40;67.60;;;;;;5114187;28;20032;-73
2021/07/06 06:35:59;;;;;;;7.93;2.00;;;23.40;67.30;;;;;;5115160;28;20035;-73
2021/07/06 06:38:25;;;;;;;8.73;2.25;;;23.50;66.50;;;;;;5114841;28;20047;-73
2021/07/06 06:40:51;;;;;;;8.45;2.50;;;23.50;66.20;;;;;;5114891;28;20052;-72
2021/07/06 06:43:17;;;;;;;7.22;1.83;;;23.60;65.90;;;;;;5115542;28;20027;-73
2021/07/06 06:45:45;;;;;;;4.07;1.75;;;23.60;65.70;;;;;;5115028;28;20153;-73
2021/07/06 06:48:11;;;;;;;4.80;1.77;;;23.70;65.40;;;;;;5115140;28;20106;-73
2021/07/06 06:50:37;;;;;;;3.40;1.80;;;23.70;64.60;;;;;;5114692;28;20157;-73
2021/07/06 06:53:03;;;;;;;7.63;2.47;;;23.70;64.70;;;;;;5114676;28;20380;-73
2021/07/06 06:55:29;;;;;;;7.63;2.10;;;23.70;65.00;;;;;;5114799;28;20016;-73
2021/07/06 06:57:54;;;;;;;3.40;1.58;;;23.80;65.20;;;;;;5114890;28;20027;-73
2021/07/06 07:00:20;;;;;;;2.30;1.55;;;23.80;65.10;;;;;;5114924;28;20023;-73
2021/07/06 07:02:49;;;;;;;5.57;1.80;;;23.90;64.80;;;;;;5114483;28;20095;-72
2021/07/06 07:05:14;;;;;;;3.15;1.50;;;23.90;64.40;;;;;;5114308;28;20092;-72
2021/07/06 07:07:40;;;;;;;8.93;1.50;;;24.10;64.50;;;;;;5114683;28;20099;-72
2021/07/06 07:10:07;;;;;;;3.22;1.45;;;24.10;64.50;;;;;;5114536;28;20449;-73
2021/07/06 07:12:35;;;;;;;5.90;2.20;;;24.10;64.30;;;;;;5114611;28;20094;-72
2021/07/06 07:15:02;;;;;;;6.60;2.03;;;24.20;64.40;;;;;;5114396;28;20044;-73
2021/07/06 07:17:28;;;;;;;5.88;1.60;;;24.20;64.20;;;;;;5114519;28;20390;-73
2021/07/06 07:19:54;;;;;;;4.28;1.38;;;24.20;64.10;;;;;;5114065;28;20103;-73
2021/07/06 07:22:21;;;;;;;5.50;1.50;;;24.30;63.90;;;;;;5114408;28;20116;-73
2021/07/06 07:24:46;;;;;;;3.50;1.70;;;24.40;63.50;;;;;;5114256;28;20484;-73
2021/07/06 07:27:12;;;;;;;5.55;1.50;;;24.40;63.20;;;;;;5114280;28;20020;-73
2021/07/06 07:29:38;;;;;;;7.18;1.90;;;24.50;62.80;;;;;;5114034;28;20031;-73
2021/07/06 07:32:05;;;;;;;4.20;1.52;;;24.50;62.70;;;;;;5114104;28;20012;-73
2021/07/06 07:34:33;;;;;;;5.15;1.45;;;24.60;62.40;;;;;;5113986;28;20059;-73
2021/07/06 07:37:00;;;;;;;5.97;1.55;;;24.60;63.10;;;;;;5114236;28;20051;-73
2021/07/06 07:39:26;;;;;;;6.03;1.80;;;24.70;62.30;;;;;;5114058;28;20103;-73
2021/07/06 07:41:52;;;;;;;5.10;1.60;;;24.70;62.60;;;;;;5113835;28;20035;-73
2021/07/06 07:44:18;;;;;;;8.95;1.75;;;24.80;62.80;;;;;;5113622;28;20349;-73
2021/07/06 07:46:44;;;;;;;6.50;1.77;;;24.80;62.50;;;;;;5113944;28;20079;-73
2021/07/06 07:49:10;;;;;;;6.47;1.67;;;24.80;62.20;;;;;;5113786;28;20118;-73
2021/07/06 07:51:35;;;;;;;4.13;1.58;;;24.90;62.50;;;;;;5113927;28;20460;-73
2021/07/06 07:54:02;;;;;;;4.82;1.70;;;25.00;62.40;;;;;;5113762;28;20034;-73
2021/07/06 07:56:27;;;;;;;4.47;1.73;;;25.00;62.40;;;;;;5113939;28;20035;-73
2021/07/06 07:58:53;;;;;;;5.00;1.50;;;25.10;62.80;;;;;;5113821;28;20400;-73
2021/07/06 08:01:19;;;;;;;4.45;2.10;;;25.10;62.30;;;;;;5113739;28;20047;-74
2021/07/06 08:03:45;;;;;;;7.65;1.73;;;25.20;62.20;;;;;;5114064;28;20030;-73
2021/07/06 08:06:10;;;;;;;7.28;1.63;;;25.20;62.20;;;;;;5113856;28;20016;-74
2021/07/06 08:08:36;;;;;;;3.95;1.85;;;25.30;62.90;;;;;;5113837;28;20028;-73
2021/07/06 08:11:02;;;;;;;3.15;1.65;;;25.30;62.60;;;;;;5113347;28;20024;-74
2021/07/06 08:13:32;;;;;;;3.72;1.67;;;25.40;61.30;;;;;;5111995;28;20024;-73
2021/07/06 08:15:58;;;;;;;4.45;1.80;;;25.40;61.90;;;;;;5112542;28;20153;-72
2021/07/06 08:18:24;;;;;;;5.43;1.50;;;25.50;61.70;;;;;;5113059;28;20425;-73
2021/07/06 08:20:50;;;;;;;3.08;1.83;;;25.50;61.70;;;;;;5113529;28;20053;-72
2021/07/06 08:23:16;;;;;;;4.72;1.58;;;25.60;61.30;;;;;;5112913;28;20035;-73
2021/07/06 08:25:42;;;;;;;2.28;1.20;;;;;;;;;;5113358;28;20015;-72
2021/07/06 08:28:08;;;;;;;4.57;1.20;;;25.60;60.90;;;;;;5113482;28;20075;-72
2021/07/06 08:30:34;;;;;;;5.85;1.50;;;25.80;59.80;;;;;;5111723;28;20062;-74
2021/07/06 08:32:59;;;;;;;7.40;1.30;;;25.90;59.10;;;;;;5114677;28;20020;-73
2021/07/06 08:35:25;;;;;;;2.70;1.20;;;26.00;57.80;;;;;;5117100;28;20106;-73
2021/07/06 08:37:51;;;;;;;5.22;1.20;;;26.00;57.90;;;;;;5113247;28;20087;-74
2021/07/06 08:40:18;;;;;;;2.47;1.20;;;26.10;57.20;;;;;;5113505;28;20088;-73
2021/07/06 08:42:44;;;;;;;2.42;1.00;;;26.10;56.90;;;;;;5112894;28;20055;-73
2021/07/06 08:45:11;;;;;;;5.63;1.25;;;26.20;56.90;;;;;;5112878;28;20380;-72
2021/07/06 08:47:38;;;;;;;3.88;1.20;;;26.30;57.00;;;;;;5127230;28;20434;-73
2021/07/06 08:50:06;;;;;;;1.27;1.08;;;26.40;56.50;;;;;;5133555;28;20507;-74
2021/07/06 08:52:36;;;;;;;4.28;1.45;;;26.50;56.60;;;;;;5132430;28;20015;-74
2021/07/06 08:55:02;;;;;;;3.28;1.20;;;26.50;56.30;;;;;;5133020;27;20027;-74
2021/07/06 08:57:28;;;;;;;3.42;1.10;;;;;;;;;;5135151;27;20024;-74
2021/07/06 08:59:54;;;;;;;1.38;1.10;;;;;;;;;;5136794;27;20425;-74
2021/07/06 09:02:21;;;;;;;0.88;0.80;;;;;;;;;;5136962;27;20510;-74
2021/07/06 09:04:50;;;;;;;2.25;0.90;;;;;;;;;;5137416;27;20475;-74
2021/07/06 09:07:17;;;;;;;2.75;1.10;;;;;;;;;;5136248;27;20038;-73
2021/07/06 09:09:43;;;;;;;1.50;0.95;;;;;;;;;;5136285;27;20034;-74
2021/07/06 09:12:11;;;;;;;5.18;1.00;;;;;;;;;;5137392;27;20023;-73
2021/07/06 09:14:48;;;;;;;1.13;1.02;;;;;;;;;;5137017;27;20118;-73
2021/07/06 09:17:17;;;;;;;3.33;0.98;;;;;;;;;;5137606;27;20368;-73
2021/07/06 09:19:45;;;;;;;4.18;0.90;;;;;;;;;;5137247;27;20112;-73
2021/07/06 09:22:18;;;;;;;2.00;1.05;;;;;;;;;;5137400;27;20031;-73
2021/07/06 09:24:48;;;;;;;1.55;0.98;;;;;;;;;;5136959;27;20027;-73
2021/07/06 09:27:28;;;;;;;2.25;1.17;;;;;;;;;;5137004;27;20019;-74
2021/07/06 09:30:07;;;;;;;3.67;1.00;;;;;;;;;;5137066;27;20039;-73
2021/07/06 09:32:33;;;;;;;4.18;1.05;;;;;;;;;;5136953;27;20067;-73
2021/07/06 09:35:13;;;;;;;1.60;0.90;;;;;;;;;;5135996;27;20475;-74
2021/07/06 09:38:00;;;;;;;2.03;0.90;;;;;;;;;;5136573;27;20070;-73
2021/07/06 09:40:33;;;;;;;3.88;0.93;;;;;;;;;;5136651;27;20104;-74
2021/07/06 09:43:14;;;;;;;2.20;1.05;;;;;;;;;;5136856;27;20089;-74
2021/07/06 09:45:42;;;;;;;1.38;0.90;;;26.60;56.50;;;;;;5136728;27;20102;-74
2021/07/06 09:48:08;;;;;;;2.63;0.80;;;;;;;;;;5136687;27;20064;-73
2021/07/06 09:50:34;;;;;;;3.38;0.95;;;;;;;;;;5136363;27;20031;-74
2021/07/06 09:53:01;;;;;;;2.10;0.80;;;;;;;;;;5136776;27;20023;-74
2021/07/06 09:55:33;;;;;;;1.40;0.75;;;;;;;;;;5136582;27;20503;-73
2021/07/06 09:58:04;;;;;;;0.85;0.85;;;;;;;;;;5136273;27;20141;-73
2021/07/06 10:00:31;;;;;;;1.98;0.90;;;;;;;;;;5136490;27;20022;-74
2021/07/06 10:03:01;;;;;;;2.50;0.85;;;27.90;50.60;;;;;;5136350;27;20079;-74
2021/07/06 10:05:29;;;;;;;4.43;1.00;;;28.10;50.30;;;;;;5136392;27;20531;-73
2021/07/06 10:07:55;;;;;;;2.22;1.00;;;28.20;49.20;;;;;;5134645;27;20029;-74
2021/07/06 10:10:22;;;;;;;1.90;0.77;;;28.30;49.70;;;;;;5136083;27;20583;-73
2021/07/06 10:12:48;;;;;;;2.70;0.73;;;;;;;;;;5136073;27;20015;-74
2021/07/06 10:15:16;;;;;;;3.97;0.90;;;;;;;;;;5136002;27;20078;-74
2021/07/06 10:17:42;;;;;;;2.95;0.98;;;;;;;;;;5136234;27;20417;-74
2021/07/06 10:20:09;;;;;;;2.75;1.02;;;;;;;;;;5136252;27;20034;-74
2021/07/06 10:22:36;;;;;;;3.28;0.80;;;;;;;;;;5134371;27;20026;-73
2021/07/06 10:25:04;;;;;;;1.00;0.70;;;;;;;;;;5135149;27;20030;-74
2021/07/06 10:27:35;;;;;;;1.55;0.80;;;;;;;;;;5135820;27;20091;-73
2021/07/06 10:30:14;;;;;;;3.22;0.70;;;;;;;;;;5135756;27;20031;-74
2021/07/06 10:32:41;;;;;;;0.90;0.70;;;;;;;;;;5135566;27;20031;-75
2021/07/06 10:35:09;;;;;;;1.08;0.73;;;;;;;;;;5135590;27;20019;-76
2021/07/06 10:37:35;;;;;;;1.27;1.00;;;;;;;;;;5135530;27;20100;-75
2021/07/06 10:40:14;;;;;;;4.47;0.80;;;;;;;;;;5135398;27;20485;-75
2021/07/06 10:42:41;;;;;;;1.20;0.80;;;;;;;;;;5117701;27;20031;-75
2021/07/06 10:45:14;;;;;;;1.30;0.80;;;;;;;;;;5114912;28;20027;-74
2021/07/06 10:47:41;;;;;;;1.63;0.90;;;;;;;;;;5114253;28;20114;-75
2021/07/06 10:50:23;;;;;;;1.50;1.02;;;;;;;;;;5114517;28;20032;-74
2021/07/06 10:52:49;;;;;;;5.45;0.70;;;;;;;;;;5114470;28;20024;-75
2021/07/06 10:55:34;;;;;;;1.88;0.80;;;;;;;;;;5114585;28;20039;-75
2021/07/06 10:58:00;;;;;;;0.95;0.70;;;;;;;;;;5114809;28;20016;-76
2021/07/06 11:00:43;;;;;;;1.27;0.85;;;;;;;;;;5114404;28;20091;-75
2021/07/06 11:03:16;;;;;;;1.88;0.80;;;;;;;;;;5114035;28;20024;-75
2021/07/06 11:05:42;;;;;;;3.58;0.90;;;;;;;;;;5114514;28;20392;-75
2021/07/06 11:08:08;;;;;;;1.10;0.80;;;;;;;;;;5114264;28;20024;-75
2021/07/06 11:10:36;;;;;;;2.63;0.88;;;;;;;;;;5114401;28;20038;-75
2021/07/06 11:13:15;;;;;;;1.02;0.70;;;;;;;;;;5114183;27;20061;-75
2021/07/06 11:15:41;;;;;;;1.42;0.80;;;;;;;;;;5113871;28;20103;-75
2021/07/06 11:18:10;;;;;;;1.27;0.80;;;;;;;;;;5113984;28;20104;-75
2021/07/06 11:20:38;;;;;;;2.88;0.70;;;;;;;;;;5114029;28;20479;-75
2021/07/06 11:23:06;;;;;;;1.40;0.85;;;;;;;;;;5114014;28;20024;-77
2021/07/06 11:25:34;;;;;;;1.02;0.70;;;;;;;;;;5113834;28;20023;-75
2021/07/06 11:28:02;;;;;;;0.95;0.80;;;;;;;;;;5113817;28;20022;-75
2021/07/06 11:30:30;;;;;;;1.15;0.60;;;;;;;;;;5113810;28;20388;-76
2021/07/06 11:33:09;;;;;;;1.20;0.70;;;;;;;;;;5114116;28;20020;-74
2021/07/06 11:35:38;;;;;;;1.42;0.70;;;;;;;;;;5113838;28;20080;-75
2021/07/06 11:38:05;;;;;;;2.78;0.95;;;;;;;;;;5113873;28;20106;-75
2021/07/06 11:40:32;;;;;;;1.10;0.70;;;;;;;;;;5113839;28;20028;-75
2021/07/06 11:42:58;;;;;;;1.00;0.70;;;;;;;;;;5113995;28;20020;-74
2021/07/06 11:45:24;;;;;;;3.78;0.75;;;;;;;;;;5113788;28;20383;-75
2021/07/06 11:48:03;;;;;;;1.10;0.77;;;;;;;;;;5113499;28;20556;-75
2021/07/06 11:50:30;;;;;;;1.17;0.70;;;;;;;;;;5113773;28;20031;-76
2021/07/06 11:52:56;;;;;;;0.90;0.70;;;;;;;;;;5113817;28;20034;-75
2021/07/06 11:55:26;;;;;;;3.10;0.82;;;;;;;;;;5113664;28;20028;-75
2021/07/06 11:57:55;;;;;;;1.05;0.80;;;;;;;;;;5113331;28;20024;-74
2021/07/06 12:00:22;;;;;;;2.65;1.00;;;;;;;;;;5113224;28;20024;-70
2021/07/06 12:02:49;;;;;;;0.80;0.80;;;;;;;;;;5113630;28;20035;-74
2021/07/06 12:05:16;;;;;;;1.15;0.80;;;;;;;;;;5113436;28;20102;-73
2021/07/06 12:07:42;;;;;;;1.40;0.70;;;;;;;;;;5113472;28;20032;-73
2021/07/06 12:10:09;;;;;;;2.35;0.70;;;;;;;;;;5112171;28;20391;-73
2021/07/06 12:12:36;;;;;;;2.28;0.90;;;;;;;;;;5113101;28;20492;-74
2021/07/06 12:15:03;;;;;;;3.13;0.90;;;;;;;;;;5112914;28;20047;-74
2021/07/06 12:17:30;;;;;;;1.80;0.85;;;;;;;;;;5113362;28;20020;-75
2021/07/06 12:19:57;;;;;;;1.10;0.93;;;;;;;;;;5113541;28;20391;-75
2021/07/06 12:22:23;;;;;;;1.48;0.80;;;;;;;;;;5113301;28;20026;-75
2021/07/06 12:24:49;;;;;;;7.15;1.02;;;;;;;;;;5113313;28;20016;-76
2021/07/06 12:27:17;;;;;;;3.60;0.80;;;;;;;;;;5113169;28;20039;-75
2021/07/06 12:29:43;;;;;;;2.70;0.90;;;;;;;;;;5113210;28;20124;-76
2021/07/06 12:32:13;;;;;;;1.30;0.80;;;;;;;;;;5117424;28;20400;-75
2021/07/06 12:34:40;;;;;;;2.38;0.80;;;;;;;;;;5117273;28;20080;-76
2021/07/06 12:37:09;;;;;;;1.23;0.70;;;;;;;;;;5117336;28;20019;-75
2021/07/06 12:39:37;;;;;;;5.70;0.98;;;;;;;;;;5117242;28;20023;-75
2021/07/06 12:42:03;;;;;;;1.15;0.90;;;;;;;;;;5116179;28;20040;-73
2021/07/06 12:44:32;;;;;;;1.08;0.80;;;;;;;;;;5116580;28;20016;-76
2021/07/06 12:47:17;;;;;;;2.25;1.38;;;;;;;;;;5116898;28;20088;-74
2021/07/06 12:49:47;;;;;;;2.60;1.02;;;;;;;;;;5096307;28;20104;-75
2021/07/06 12:52:13;;;;;;;1.35;0.80;;;;;;;;;;5096474;28;20111;-74
2021/07/06 12:54:40;;;;;;;0.90;0.80;;;;;;;;;;5096481;28;20035;-74
2021/07/06 12:57:07;;;;;;;0.70;0.70;;;;;;;;;;5096365;28;20380;-75
2021/07/06 12:59:34;;;;;;;1.50;0.90;;;;;;;;;;5096445;28;20016;-74
2021/07/06 13:02:17;;;;;;;1.70;0.90;;;;;;;;;;5096308;28;20476;-75
2021/07/06 13:04:54;;;;;;;4.32;1.00;;;;;;;;;;5095501;28;20107;-75
2021/07/06 13:07:20;;;;;;;2.97;0.90;;;;;;;;;;5103561;28;20077;-74
2021/07/06 13:09:59;;;;;;;1.45;0.90;;;;;;;;;;5116169;28;20118;-75
2021/07/06 13:12:29;;;;;;;1.00;0.68;;;;;;;;;;5114481;28;20027;-75
2021/07/06 13:14:55;;;;;;;1.23;1.00;;;;;;;;;;5112346;28;20150;-75
2021/07/06 13:17:22;;;;;;;1.85;0.90;;;;;;;;;;5113357;28;20518;-74
2021/07/06 13:19:58;;;;;;;1.23;1.00;;;;;;;;;;5114580;28;20020;-74